createdAt,value
2019-03-15T00:00:55.683Z,6.65
2019-03-15T00:03:24.606Z,6.59
2019-03-15T00:05:52.612Z,6.58
2019-03-15T00:08:21.019Z,6.54
2019-03-15T00:10:49.044Z,6.56
2019-03-15T00:13:17.005Z,6.61
2019-03-15T00:15:44.902Z,6.52
2019-03-15T00:18:13.105Z,6.56
2019-03-15T00:20:41.234Z,6.54
2019-03-15T00:23:09.156Z,6.54
2019-03-15T00:25:37.100Z,6.55
2019-03-15T00:28:05.170Z,6.61
2019-03-15T00:30:33.290Z,6.60
2019-03-15T00:33:01.346Z,6.58
2019-03-15T00:35:29.381Z,6.62
2019-03-15T00:37:57.347Z,6.63
2019-03-15T00:40:25.367Z,6.69
2019-03-15T00:42:53.467Z,6.72
2019-03-15T00:45:21.485Z,6.72
2019-03-15T00:47:49.633Z,6.70
2019-03-15T00:50:17.758Z,6.82
2019-03-15T00:52:45.797Z,6.78
2019-03-15T00:55:15.040Z,6.82
2019-03-15T00:57:42.891Z,6.80
2019-03-15T01:00:12.321Z,6.82
2019-03-15T01:02:40.448Z,6.81
2019-03-15T01:05:08.597Z,6.80
2019-03-15T01:07:36.715Z,6.84
2019-03-15T01:10:04.948Z,6.76
2019-03-15T01:12:33.033Z,6.74
2019-03-15T01:15:01.074Z,6.70
2019-03-15T01:17:29.114Z,6.79
2019-03-15T01:19:57.080Z,6.76
2019-03-15T01:22:25.187Z,6.81
2019-03-15T01:24:53.245Z,6.80
2019-03-15T01:27:21.251Z,6.89
2019-03-15T01:29:49.519Z,6.84
2019-03-15T01:32:17.611Z,6.88
2019-03-15T01:34:45.651Z,6.94
2019-03-15T01:37:13.792Z,7.00
2019-03-15T01:39:41.662Z,6.99
2019-03-15T01:42:09.675Z,7.00
2019-03-15T01:44:37.778Z,6.97
2019-03-15T01:47:05.912Z,6.99
2019-03-15T01:49:33.875Z,6.98
2019-03-15T01:52:01.896Z,6.97
2019-03-15T01:54:29.819Z,7.02
2019-03-15T01:57:10.418Z,7.04
2019-03-15T01:59:38.405Z,7.02
2019-03-15T02:02:06.536Z,7.03
2019-03-15T02:04:34.592Z,7.00
2019-03-15T02:07:02.711Z,6.95
2019-03-15T02:09:30.571Z,6.91
2019-03-15T02:11:58.507Z,7.00
2019-03-15T02:14:26.354Z,7.00
2019-03-15T02:16:54.444Z,7.02
2019-03-15T02:19:22.890Z,7.05
2019-03-15T02:21:50.992Z,7.04
2019-03-15T02:24:18.957Z,7.02
2019-03-15T02:26:48.483Z,7.01
2019-03-15T02:29:16.699Z,6.96
2019-03-15T02:31:44.713Z,6.98
2019-03-15T02:34:12.779Z,7.08
2019-03-15T02:36:40.937Z,7.05
2019-03-15T02:39:08.859Z,7.01
2019-03-15T02:41:36.999Z,6.96
2019-03-15T02:44:05.256Z,6.95
2019-03-15T02:46:33.366Z,6.93
2019-03-15T02:49:01.539Z,6.99
2019-03-15T02:51:29.521Z,6.97
2019-03-15T02:53:57.338Z,6.99
2019-03-15T02:56:25.507Z,6.97
2019-03-15T02:58:54.191Z,7.03
2019-03-15T03:01:22.413Z,7.04
2019-03-15T03:03:50.514Z,7.06
2019-03-15T03:06:18.457Z,7.05
2019-03-15T03:08:48.464Z,7.10
2019-03-15T03:11:16.499Z,7.02
2019-03-15T03:13:44.583Z,7.03
2019-03-15T03:16:12.662Z,7.00
2019-03-15T03:18:40.714Z,7.00
2019-03-15T03:21:08.736Z,6.94
2019-03-15T03:23:36.846Z,6.91
2019-03-15T03:26:05.137Z,6.96
2019-03-15T03:28:33.101Z,7.09
2019-03-15T03:31:01.140Z,7.05
2019-03-15T03:33:29.087Z,7.03
2019-03-15T03:35:57.012Z,6.98
2019-03-15T03:38:25.105Z,7.02
2019-03-15T03:40:53.174Z,7.00
2019-03-15T03:43:21.289Z,6.95
2019-03-15T03:45:49.305Z,6.92
2019-03-15T03:48:17.414Z,6.91
2019-03-15T03:50:45.467Z,6.98
2019-03-15T03:53:13.563Z,7.00
2019-03-15T03:55:42.226Z,7.00
2019-03-15T03:58:10.261Z,6.98
2019-03-15T04:00:38.313Z,6.92
2019-03-15T04:03:06.429Z,6.92
2019-03-15T04:05:36.868Z,6.90
2019-03-15T04:08:05.447Z,6.99
2019-03-15T04:10:33.508Z,6.99
2019-03-15T04:13:01.644Z,6.97
2019-03-15T04:15:29.679Z,6.93
2019-03-15T04:17:57.759Z,6.90
2019-03-15T04:20:25.701Z,6.89
2019-03-15T04:22:55.400Z,6.91
2019-03-15T04:25:23.601Z,6.88
2019-03-15T04:27:51.466Z,6.93
2019-03-15T04:30:19.450Z,6.89
2019-03-15T04:32:47.666Z,7.02
2019-03-15T04:35:15.725Z,6.93
2019-03-15T04:37:43.742Z,6.85
2019-03-15T04:40:11.839Z,6.88
2019-03-15T04:42:39.875Z,6.82
2019-03-15T04:45:08.186Z,6.80
2019-03-15T04:47:36.150Z,6.79
2019-03-15T04:50:04.665Z,6.75
2019-03-15T04:52:32.597Z,6.76
2019-03-15T04:55:00.818Z,6.69
2019-03-15T04:57:28.880Z,6.82
2019-03-15T04:59:56.904Z,6.78
2019-03-15T05:02:24.853Z,6.81
2019-03-15T05:04:52.982Z,6.72
2019-03-15T05:07:21.139Z,6.79
2019-03-15T05:09:49.271Z,6.78
2019-03-15T05:12:18.133Z,6.91
2019-03-15T05:14:46.232Z,6.88
2019-03-15T05:17:14.446Z,6.84
2019-03-15T05:19:42.544Z,6.85
2019-03-15T05:22:10.512Z,6.74
2019-03-15T05:24:38.630Z,6.84
2019-03-15T05:27:06.642Z,6.83
2019-03-15T05:29:34.773Z,7.00
2019-03-15T05:32:02.829Z,6.91
2019-03-15T05:34:30.832Z,7.01
2019-03-15T05:36:58.852Z,7.01
2019-03-15T05:39:27.751Z,6.93
2019-03-15T05:41:55.753Z,7.09
2019-03-15T05:44:23.849Z,7.06
2019-03-15T05:46:52.110Z,7.02
2019-03-15T05:49:20.053Z,7.09
2019-03-15T05:51:47.901Z,7.05
2019-03-15T05:54:15.947Z,7.05
2019-03-15T05:56:43.980Z,6.98
2019-03-15T05:59:12.084Z,7.02
2019-03-15T06:01:40.247Z,7.04
2019-03-15T06:04:08.345Z,7.15
2019-03-15T06:06:36.368Z,7.11
2019-03-15T06:09:05.620Z,7.10
2019-03-15T06:11:33.697Z,7.18
2019-03-15T06:14:01.781Z,7.17
2019-03-15T06:16:29.780Z,7.20
2019-03-15T06:18:57.970Z,7.20
2019-03-15T06:21:26.024Z,7.23
2019-03-15T06:23:54.148Z,7.24
2019-03-15T06:26:22.095Z,7.25
2019-03-15T06:28:50.591Z,7.33
2019-03-15T06:31:18.668Z,7.36
2019-03-15T06:33:46.728Z,7.40
2019-03-15T06:36:14.748Z,7.39
2019-03-15T06:38:42.625Z,7.35
2019-03-15T06:41:10.738Z,7.35
2019-03-15T06:43:38.790Z,7.35
2019-03-15T06:46:06.925Z,7.36
2019-03-15T06:48:35.026Z,7.45
2019-03-15T06:51:03.178Z,7.61
2019-03-15T06:53:31.199Z,7.55
2019-03-15T06:55:59.422Z,7.45
2019-03-15T06:58:27.266Z,7.38
2019-03-15T07:00:55.329Z,7.37
2019-03-15T07:03:23.254Z,7.33
2019-03-15T07:05:51.469Z,7.48
2019-03-15T07:08:19.500Z,7.39
2019-03-15T07:10:47.634Z,7.50
2019-03-15T07:13:15.562Z,7.54
2019-03-15T07:15:44.485Z,7.49
2019-03-15T07:18:12.687Z,7.56
2019-03-15T07:20:40.800Z,7.50
2019-03-15T07:23:08.820Z,7.64
2019-03-15T07:25:36.931Z,7.63
2019-03-15T07:28:04.931Z,7.69
2019-03-15T07:30:33.060Z,7.67
2019-03-15T07:33:01.003Z,7.73
2019-03-15T07:35:29.103Z,7.78
2019-03-15T07:37:57.145Z,7.76
2019-03-15T07:40:25.081Z,7.90
2019-03-15T07:43:04.572Z,7.78
2019-03-15T07:45:42.907Z,7.79
2019-03-15T07:48:21.695Z,7.82
2019-03-15T07:50:41.279Z,7.87
2019-03-15T07:53:09.240Z,7.93
2019-03-15T07:55:37.337Z,7.89
2019-03-15T07:58:05.766Z,7.99
2019-03-15T08:00:34.374Z,8.02
2019-03-15T08:03:02.440Z,8.04
2019-03-15T08:05:30.431Z,8.08
2019-03-15T08:07:58.472Z,8.07
2019-03-15T08:10:26.477Z,8.07
2019-03-15T08:12:55.224Z,8.12
2019-03-15T08:15:23.231Z,8.20
2019-03-15T08:17:51.190Z,8.21
2019-03-15T08:20:19.314Z,8.20
2019-03-15T08:22:47.398Z,8.25
2019-03-15T08:25:15.514Z,8.33
2019-03-15T08:27:43.482Z,8.42
2019-03-15T08:30:12.060Z,8.45
2019-03-15T08:32:43.509Z,8.57
2019-03-15T08:35:10.344Z,8.56
2019-03-15T08:37:38.457Z,8.65
2019-03-15T08:40:07.563Z,8.61
2019-03-15T08:42:35.659Z,8.64
2019-03-15T08:45:04.626Z,8.73
2019-03-15T08:47:34.847Z,8.64
2019-03-15T08:50:03.560Z,8.68
2019-03-15T08:52:31.488Z,8.74
2019-03-15T08:55:05.140Z,8.78
2019-03-15T08:57:29.449Z,8.81
2019-03-15T08:59:58.027Z,8.83
2019-03-15T09:02:27.094Z,8.82
2019-03-15T09:04:55.035Z,8.80
2019-03-15T09:07:22.969Z,8.84
2019-03-15T09:09:50.936Z,8.87
2019-03-15T09:12:19.036Z,8.90
2019-03-15T09:14:46.964Z,9.03
2019-03-15T09:17:14.883Z,9.08
2019-03-15T09:19:42.886Z,9.10
2019-03-15T09:22:10.994Z,9.09
2019-03-15T09:24:39.019Z,9.17
2019-03-15T09:27:10.255Z,9.22
2019-03-15T09:29:36.889Z,9.27
2019-03-15T09:32:09.059Z,9.28
2019-03-15T09:34:35.023Z,9.30
2019-03-15T09:37:03.150Z,9.41
2019-03-15T09:39:31.191Z,9.42
2019-03-15T09:41:59.196Z,9.55
2019-03-15T09:44:27.235Z,9.61
2019-03-15T09:46:55.293Z,9.71
2019-03-15T09:49:25.541Z,9.68
2019-03-15T09:51:53.531Z,9.66
2019-03-15T09:54:21.449Z,9.59
2019-03-15T09:56:49.552Z,9.76
2019-03-15T09:59:19.401Z,9.81
2019-03-15T10:01:47.634Z,9.91
2019-03-15T10:04:17.187Z,10.06
2019-03-15T10:06:45.589Z,10.20
2019-03-15T10:09:13.561Z,10.37
2019-03-15T10:11:41.685Z,10.31
2019-03-15T10:14:09.652Z,10.32
2019-03-15T10:16:37.671Z,10.43
2019-03-15T10:19:06.586Z,10.43
2019-03-15T10:21:34.715Z,10.55
2019-03-15T10:24:02.751Z,10.62
2019-03-15T10:26:30.825Z,10.68
2019-03-15T10:28:58.682Z,10.67
2019-03-15T10:31:27.043Z,10.56
2019-03-15T10:33:55.250Z,10.52
2019-03-15T10:36:23.213Z,10.57
2019-03-15T10:38:51.325Z,10.41
2019-03-15T10:41:19.164Z,10.48
2019-03-15T10:43:47.142Z,10.49
2019-03-15T10:46:15.841Z,10.57
2019-03-15T10:48:43.841Z,10.67
2019-03-15T10:51:11.832Z,10.70
2019-03-15T10:53:39.850Z,10.70
2019-03-15T10:56:07.793Z,10.78
2019-03-15T10:58:35.677Z,10.86
2019-03-15T11:01:03.738Z,10.91
2019-03-15T11:03:32.654Z,10.96
2019-03-15T11:06:00.586Z,11.03
2019-03-15T11:08:28.694Z,11.03
2019-03-15T11:10:56.612Z,11.04
2019-03-15T11:13:25.767Z,10.86
2019-03-15T11:15:54.393Z,10.90
2019-03-15T11:18:22.558Z,10.87
2019-03-15T11:20:50.677Z,10.91
2019-03-15T11:23:18.806Z,10.83
2019-03-15T11:25:46.758Z,10.81
2019-03-15T11:28:14.981Z,10.83
2019-03-15T11:30:43.916Z,10.78
2019-03-15T11:33:11.962Z,10.77
2019-03-15T11:35:39.939Z,10.77
2019-03-15T11:38:08.577Z,10.73
2019-03-15T11:40:38.192Z,10.69
2019-03-15T11:43:06.607Z,10.70
2019-03-15T11:45:34.728Z,10.68
2019-03-15T11:48:04.313Z,10.68
2019-03-15T11:50:32.943Z,10.60
2019-03-15T11:53:01.332Z,10.81
2019-03-15T11:55:29.357Z,10.83
2019-03-15T11:57:57.484Z,10.74
2019-03-15T12:00:25.663Z,10.69
2019-03-15T12:02:53.787Z,10.82
2019-03-15T12:05:22.344Z,10.76
2019-03-15T12:07:50.535Z,10.72
2019-03-15T12:10:18.563Z,10.74
2019-03-15T12:12:46.573Z,10.84
2019-03-15T12:15:14.613Z,10.90
2019-03-15T12:17:42.693Z,11.32
2019-03-15T12:20:10.829Z,11.55
2019-03-15T12:22:38.760Z,11.82
2019-03-15T12:25:14.325Z,11.85
2019-03-15T12:27:42.328Z,11.86
2019-03-15T12:30:10.369Z,11.78
2019-03-15T12:32:38.329Z,12.01
2019-03-15T12:35:08.466Z,12.06
2019-03-15T12:37:36.496Z,12.03
2019-03-15T12:40:05.388Z,12.03
2019-03-15T12:42:33.310Z,11.95
2019-03-15T12:45:01.475Z,11.86
2019-03-15T12:47:30.009Z,11.92
2019-03-15T12:49:58.009Z,11.82
2019-03-15T12:52:25.931Z,11.65
2019-03-15T12:54:53.898Z,11.60
2019-03-15T12:57:21.941Z,11.58
2019-03-15T12:59:50.055Z,11.62
2019-03-15T13:02:20.317Z,11.65
2019-03-15T13:04:51.939Z,11.66
2019-03-15T13:07:18.941Z,11.62
2019-03-15T13:09:47.015Z,11.86
2019-03-15T13:12:14.939Z,12.03
2019-03-15T13:14:42.961Z,12.04
2019-03-15T13:17:11.375Z,11.96
2019-03-15T13:19:39.267Z,11.87
2019-03-15T13:22:07.195Z,11.87
2019-03-15T13:24:35.296Z,11.89
2019-03-15T13:27:08.036Z,11.84
2019-03-15T13:29:36.173Z,11.77
2019-03-15T13:32:04.294Z,11.76
2019-03-15T13:34:32.411Z,11.74
2019-03-15T13:37:00.469Z,11.73
2019-03-15T13:39:28.461Z,11.73
2019-03-15T13:41:56.326Z,11.80
2019-03-15T13:44:26.226Z,11.82
2019-03-15T13:46:55.051Z,11.95
2019-03-15T13:49:23.057Z,11.94
2019-03-15T13:51:50.992Z,11.93
2019-03-15T13:54:19.002Z,11.97
2019-03-15T13:56:48.476Z,11.91
2019-03-15T13:59:16.614Z,11.97
2019-03-15T14:01:44.657Z,11.88
2019-03-15T14:04:12.649Z,11.83
2019-03-15T14:06:46.541Z,11.80
2019-03-15T14:09:14.640Z,11.85
2019-03-15T14:11:42.667Z,11.92
2019-03-15T14:14:10.647Z,11.91
2019-03-15T14:16:38.522Z,11.88
2019-03-15T14:19:06.753Z,11.86
2019-03-15T14:21:34.865Z,11.87
2019-03-15T14:24:03.069Z,11.89
2019-03-15T14:26:30.999Z,11.82
2019-03-15T14:29:09.372Z,11.92
2019-03-15T14:31:37.198Z,11.79
2019-03-15T14:34:05.217Z,11.77
2019-03-15T14:36:33.151Z,11.87
2019-03-15T14:39:01.490Z,11.90
2019-03-15T14:41:29.675Z,11.81
2019-03-15T14:43:57.754Z,11.79
2019-03-15T14:46:25.747Z,11.74
2019-03-15T14:48:53.729Z,11.65
2019-03-15T14:51:21.919Z,11.69
2019-03-15T14:53:49.842Z,11.66
2019-03-15T14:56:17.882Z,11.62
2019-03-15T14:58:45.863Z,11.68
2019-03-15T15:01:13.970Z,11.68
2019-03-15T15:03:41.900Z,11.71
2019-03-15T15:06:09.994Z,11.59
2019-03-15T15:08:37.955Z,11.69
2019-03-15T15:11:05.953Z,11.63
2019-03-15T15:13:34.010Z,11.67
2019-03-15T15:16:02.171Z,11.66
2019-03-15T15:18:30.176Z,11.59
2019-03-15T15:20:58.410Z,11.56
2019-03-15T15:23:26.386Z,11.54
2019-03-15T15:25:54.407Z,11.62
2019-03-15T15:28:22.448Z,11.63
2019-03-15T15:30:50.575Z,11.65
2019-03-15T15:33:19.334Z,11.54
2019-03-15T15:35:47.451Z,11.49
2019-03-15T15:38:15.412Z,11.49
2019-03-15T15:40:43.419Z,11.57
2019-03-15T15:43:11.773Z,11.54
2019-03-15T15:45:39.886Z,11.54
2019-03-15T15:48:08.009Z,11.48
2019-03-15T15:50:36.985Z,11.47
2019-03-15T15:53:05.843Z,11.47
2019-03-15T15:55:34.037Z,11.54
2019-03-15T15:58:02.074Z,11.49
2019-03-15T16:00:30.077Z,11.51
2019-03-15T16:02:58.129Z,11.51
2019-03-15T16:05:26.166Z,11.45
2019-03-15T16:07:56.556Z,11.36
2019-03-15T16:10:25.529Z,11.16
2019-03-15T16:12:53.512Z,11.16
2019-03-15T16:15:21.731Z,11.12
2019-03-15T16:17:49.808Z,11.17
2019-03-15T16:20:17.809Z,11.22
2019-03-15T16:22:45.983Z,11.20
2019-03-15T16:25:14.125Z,11.11
2019-03-15T16:27:42.015Z,11.15
2019-03-15T16:30:11.352Z,11.09
2019-03-15T16:32:39.394Z,11.19
2019-03-15T16:35:09.164Z,11.12
2019-03-15T16:37:37.165Z,11.03
2019-03-15T16:40:05.590Z,11.03
2019-03-15T16:42:33.602Z,11.05
2019-03-15T16:45:01.541Z,11.03
2019-03-15T16:47:29.575Z,11.08
2019-03-15T16:49:57.571Z,11.08
2019-03-15T16:52:25.484Z,10.93
2019-03-15T16:54:53.535Z,10.88
2019-03-15T16:57:21.571Z,10.87
2019-03-15T16:59:49.641Z,10.79
2019-03-15T17:02:17.779Z,10.87
2019-03-15T17:04:46.252Z,10.79
2019-03-15T17:07:15.166Z,10.74
2019-03-15T17:09:43.120Z,10.87
2019-03-15T17:12:11.343Z,10.89
2019-03-15T17:14:39.315Z,10.74
2019-03-15T17:17:07.432Z,10.65
2019-03-15T17:19:36.268Z,10.52
2019-03-15T17:22:05.136Z,10.68
2019-03-15T17:24:33.084Z,10.72
2019-03-15T17:27:01.189Z,10.69
2019-03-15T17:29:29.069Z,10.70
2019-03-15T17:31:58.100Z,10.63
2019-03-15T17:34:26.038Z,10.54
2019-03-15T17:37:06.177Z,10.47
2019-03-15T17:39:23.900Z,10.61
2019-03-15T17:41:52.186Z,10.55
2019-03-15T17:44:20.187Z,10.53
2019-03-15T17:46:48.164Z,10.46
2019-03-15T17:49:16.176Z,10.39
2019-03-15T17:51:44.352Z,10.32
2019-03-15T17:54:12.385Z,10.34
2019-03-15T17:56:40.486Z,10.30
2019-03-15T17:59:12.747Z,10.28
2019-03-15T18:01:38.517Z,10.14
2019-03-15T18:04:06.703Z,10.12
2019-03-15T18:06:43.834Z,10.11
2019-03-15T18:09:11.779Z,10.14
2019-03-15T18:11:39.900Z,10.13
2019-03-15T18:14:07.916Z,10.04
2019-03-15T18:16:35.962Z,9.99
2019-03-15T18:19:04.047Z,10.04
2019-03-15T18:21:32.156Z,9.92
2019-03-15T18:24:01.855Z,9.98
2019-03-15T18:26:30.608Z,9.95
2019-03-15T18:28:58.619Z,10.05
2019-03-15T18:31:29.894Z,9.98
2019-03-15T18:33:57.923Z,10.04
2019-03-15T18:36:25.997Z,10.05
2019-03-15T18:38:54.100Z,9.95
2019-03-15T18:41:22.757Z,10.06
2019-03-15T18:43:50.928Z,10.10
2019-03-15T18:46:18.972Z,9.88
2019-03-15T18:48:46.972Z,9.89
2019-03-15T18:51:15.075Z,9.93
2019-03-15T18:53:43.091Z,9.83
2019-03-15T18:56:11.336Z,9.91
2019-03-15T18:58:39.733Z,9.87
2019-03-15T19:01:07.676Z,9.86
2019-03-15T19:03:35.777Z,9.79
2019-03-15T19:06:03.831Z,9.71
2019-03-15T19:08:31.851Z,9.69
2019-03-15T19:10:59.938Z,9.71
2019-03-15T19:13:28.284Z,9.70
2019-03-15T19:15:56.321Z,9.71
2019-03-15T19:18:24.313Z,9.63
2019-03-15T19:20:52.448Z,9.68
2019-03-15T19:23:20.703Z,9.61
2019-03-15T19:25:49.373Z,9.70
2019-03-15T19:28:17.387Z,9.64
2019-03-15T19:30:45.437Z,9.65
2019-03-15T19:33:13.450Z,9.51
2019-03-15T19:35:41.307Z,9.68
2019-03-15T19:38:09.218Z,9.58
2019-03-15T19:40:49.629Z,9.64
2019-03-15T19:43:18.342Z,9.62
2019-03-15T19:45:46.399Z,9.58
2019-03-15T19:48:14.371Z,9.58
2019-03-15T19:50:42.290Z,9.58
2019-03-15T19:53:10.194Z,9.56
2019-03-15T19:55:38.128Z,9.73
2019-03-15T19:58:06.729Z,9.82
2019-03-15T20:00:34.792Z,9.89
2019-03-15T20:03:04.204Z,9.89
2019-03-15T20:05:32.271Z,9.84
2019-03-15T20:08:01.986Z,9.96
2019-03-15T20:10:30.030Z,10.03
2019-03-15T20:12:58.277Z,10.10
2019-03-15T20:15:26.215Z,10.17
2019-03-15T20:17:54.491Z,10.20
2019-03-15T20:20:22.621Z,10.37
2019-03-15T20:22:50.613Z,10.38
2019-03-15T20:25:19.506Z,10.21
2019-03-15T20:27:47.595Z,10.18
2019-03-15T20:30:21.500Z,10.06
2019-03-15T20:32:45.985Z,10.00
2019-03-15T20:35:14.110Z,9.80
2019-03-15T20:37:42.256Z,9.81
2019-03-15T20:40:10.524Z,9.74
2019-03-15T20:42:38.606Z,9.74
2019-03-15T20:45:08.427Z,9.67
2019-03-15T20:47:36.521Z,9.65
2019-03-15T20:50:05.251Z,9.65
2019-03-15T20:52:33.301Z,9.65
2019-03-15T20:55:01.402Z,9.68
2019-03-15T20:57:29.369Z,9.64
2019-03-15T20:59:57.503Z,9.65
2019-03-15T21:02:25.575Z,9.54
2019-03-15T21:04:53.599Z,9.50
2019-03-15T21:07:21.597Z,9.53
2019-03-15T21:09:49.754Z,9.51
2019-03-15T21:12:17.801Z,9.46
2019-03-15T21:14:46.531Z,9.46
2019-03-15T21:17:14.707Z,9.48
2019-03-15T21:19:43.043Z,9.53
2019-03-15T21:22:11.031Z,9.54
2019-03-15T21:24:39.073Z,9.43
2019-03-15T21:27:07.621Z,9.38
2019-03-15T21:29:35.649Z,9.34
2019-03-15T21:32:03.720Z,9.41
2019-03-15T21:34:31.883Z,9.40
2019-03-15T21:37:00.030Z,9.33
2019-03-15T21:39:28.054Z,9.27
2019-03-15T21:41:56.215Z,9.41
2019-03-15T21:44:24.698Z,9.33
2019-03-15T21:46:52.784Z,9.32
2019-03-15T21:49:20.953Z,9.29
2019-03-15T21:51:49.040Z,9.35
2019-03-15T21:54:17.259Z,9.39
2019-03-15T21:56:45.464Z,9.22
2019-03-15T21:59:13.577Z,9.37
2019-03-15T22:01:41.559Z,9.29
2019-03-15T22:04:10.094Z,9.28
2019-03-15T22:06:38.869Z,9.26
2019-03-15T22:09:07.316Z,9.21
2019-03-15T22:11:35.442Z,9.18
2019-03-15T22:14:04.353Z,9.21
2019-03-15T22:16:33.155Z,9.22
2019-03-15T22:19:01.134Z,9.25
2019-03-15T22:21:29.155Z,9.28
2019-03-15T22:23:57.316Z,9.37
2019-03-15T22:26:25.244Z,9.33
2019-03-15T22:28:53.784Z,9.28
2019-03-15T22:31:22.231Z,9.27
2019-03-15T22:33:50.564Z,9.36
2019-03-15T22:36:18.819Z,9.35
2019-03-15T22:38:46.963Z,9.47
2019-03-15T22:41:14.998Z,9.44
2019-03-15T22:43:43.048Z,9.49
2019-03-15T22:46:11.071Z,9.54
2019-03-15T22:48:41.836Z,9.59
2019-03-15T22:54:43.633Z,9.67
2019-03-15T22:57:11.618Z,9.58
2019-03-15T22:59:39.695Z,9.47
2019-03-15T23:02:08.030Z,9.55
2019-03-15T23:04:36.149Z,9.47
2019-03-15T23:07:05.114Z,9.49
2019-03-15T23:09:33.166Z,9.48
2019-03-15T23:12:01.416Z,9.38
2019-03-15T23:14:29.316Z,9.48
2019-03-15T23:16:57.240Z,9.46
2019-03-15T23:19:25.177Z,9.44
2019-03-15T23:21:53.369Z,9.46
2019-03-15T23:24:21.374Z,9.39
2019-03-15T23:26:49.480Z,9.44
2019-03-15T23:29:17.597Z,9.40
